sensor_id;sensor_type;location;lat;lon;timestamp;P1;durP1;ratioP1;P2;durP2;ratioP2
65275;SDS011;51875;49.994;14.052;2024-01-06T00:00:22;36.60;;;16.95;;
65275;SDS011;51875;49.994;14.052;2024-01-06T00:01:39;41.80;;;19.63;;
65275;SDS011;51875;49.994;14.052;2024-01-06T00:02:55;51.05;;;23.95;;
65275;SDS011;51875;49.994;14.052;2024-01-06T00:04:11;49.83;;;23.17;;
65275;SDS011;51875;49.994;14.052;2024-01-06T00:05:27;56.33;;;23.73;;
65275;SDS011;51875;49.994;14.052;2024-01-06T00:06:43;52.45;;;24.20;;
65275;SDS011;51875;49.994;14.052;2024-01-06T00:07:59;46.90;;;23.60;;
65275;SDS011;51875;49.994;14.052;2024-01-06T00:09:15;51.50;;;24.02;;
65275;SDS011;51875;49.994;14.052;2024-01-06T00:10:31;50.33;;;23.20;;
65275;SDS011;51875;49.994;14.052;2024-01-06T00:11:47;47.67;;;20.10;;
65275;SDS011;51875;49.994;14.052;2024-01-06T00:13:04;47.45;;;20.30;;
65275;SDS011;51875;49.994;14.052;2024-01-06T00:14:20;38.72;;;18.20;;
65275;SDS011;51875;49.994;14.052;2024-01-06T00:15:36;38.67;;;18.85;;
65275;SDS011;51875;49.994;14.052;2024-01-06T00:16:53;37.00;;;17.92;;
65275;SDS011;51875;49.994;14.052;2024-01-06T00:18:09;37.58;;;17.27;;
65275;SDS011;51875;49.994;14.052;2024-01-06T00:19:24;31.90;;;15.73;;
65275;SDS011;51875;49.994;14.052;2024-01-06T00:20:41;36.15;;;15.27;;
65275;SDS011;51875;49.994;14.052;2024-01-06T00:21:57;35.05;;;16.90;;
65275;SDS011;51875;49.994;14.052;2024-01-06T00:23:13;39.72;;;16.05;;
65275;SDS011;51875;49.994;14.052;2024-01-06T00:24:29;38.17;;;16.45;;
65275;SDS011;51875;49.994;14.052;2024-01-06T00:25:45;35.53;;;17.17;;
65275;SDS011;51875;49.994;14.052;2024-01-06T00:27:01;35.17;;;16.38;;
65275;SDS011;51875;49.994;14.052;2024-01-06T00:28:17;38.17;;;16.13;;
65275;SDS011;51875;49.994;14.052;2024-01-06T00:29:33;34.20;;;15.23;;
65275;SDS011;51875;49.994;14.052;2024-01-06T00:30:49;33.80;;;15.70;;
65275;SDS011;51875;49.994;14.052;2024-01-06T00:32:05;29.00;;;14.77;;
65275;SDS011;51875;49.994;14.052;2024-01-06T00:33:21;30.67;;;15.82;;
65275;SDS011;51875;49.994;14.052;2024-01-06T00:34:37;36.20;;;15.75;;
65275;SDS011;51875;49.994;14.052;2024-01-06T00:35:53;28.98;;;13.30;;
65275;SDS011;51875;49.994;14.052;2024-01-06T00:37:10;27.65;;;13.52;;
65275;SDS011;51875;49.994;14.052;2024-01-06T00:38:26;28.58;;;13.32;;
65275;SDS011;51875;49.994;14.052;2024-01-06T00:39:42;34.50;;;14.27;;
65275;SDS011;51875;49.994;14.052;2024-01-06T00:40:58;31.25;;;14.57;;
65275;SDS011;51875;49.994;14.052;2024-01-06T00:42:14;30.48;;;13.75;;
65275;SDS011;51875;49.994;14.052;2024-01-06T00:43:30;27.98;;;13.02;;
65275;SDS011;51875;49.994;14.052;2024-01-06T00:44:46;31.98;;;14.18;;
65275;SDS011;51875;49.994;14.052;2024-01-06T00:46:02;27.55;;;13.95;;
65275;SDS011;51875;49.994;14.052;2024-01-06T00:47:18;32.13;;;14.88;;
65275;SDS011;51875;49.994;14.052;2024-01-06T00:48:34;29.45;;;14.40;;
65275;SDS011;51875;49.994;14.052;2024-01-06T00:49:50;29.10;;;14.57;;
65275;SDS011;51875;49.994;14.052;2024-01-06T00:51:06;32.20;;;14.90;;
65275;SDS011;51875;49.994;14.052;2024-01-06T00:52:22;32.03;;;15.07;;
65275;SDS011;51875;49.994;14.052;2024-01-06T00:53:38;30.55;;;14.55;;
65275;SDS011;51875;49.994;14.052;2024-01-06T00:54:54;31.02;;;14.23;;
65275;SDS011;51875;49.994;14.052;2024-01-06T00:56:10;26.13;;;13.18;;
65275;SDS011;51875;49.994;14.052;2024-01-06T00:57:26;34.35;;;15.88;;
65275;SDS011;51875;49.994;14.052;2024-01-06T00:58:42;34.40;;;16.92;;
65275;SDS011;51875;49.994;14.052;2024-01-06T00:59:58;33.58;;;15.93;;
65275;SDS011;51875;49.994;14.052;2024-01-06T01:01:14;33.70;;;16.15;;
65275;SDS011;51875;49.994;14.052;2024-01-06T01:02:30;30.38;;;15.93;;
65275;SDS011;51875;49.994;14.052;2024-01-06T01:03:46;29.63;;;14.18;;
65275;SDS011;51875;49.994;14.052;2024-01-06T01:05:03;28.70;;;13.43;;
65275;SDS011;51875;49.994;14.052;2024-01-06T01:06:19;25.63;;;12.93;;
65275;SDS011;51875;49.994;14.052;2024-01-06T01:07:35;24.25;;;12.93;;
65275;SDS011;51875;49.994;14.052;2024-01-06T01:08:51;25.77;;;12.68;;
65275;SDS011;51875;49.994;14.052;2024-01-06T01:10:08;26.73;;;12.48;;
65275;SDS011;51875;49.994;14.052;2024-01-06T01:11:25;28.30;;;11.93;;
65275;SDS011;51875;49.994;14.052;2024-01-06T01:12:41;25.42;;;12.98;;
65275;SDS011;51875;49.994;14.052;2024-01-06T01:13:57;25.63;;;12.48;;
65275;SDS011;51875;49.994;14.052;2024-01-06T01:15:13;22.92;;;11.85;;
65275;SDS011;51875;49.994;14.052;2024-01-06T01:16:29;23.58;;;11.95;;
65275;SDS011;51875;49.994;14.052;2024-01-06T01:17:45;26.40;;;12.25;;
65275;SDS011;51875;49.994;14.052;2024-01-06T01:19:01;23.98;;;11.15;;
65275;SDS011;51875;49.994;14.052;2024-01-06T01:20:17;26.13;;;12.85;;
65275;SDS011;51875;49.994;14.052;2024-01-06T01:21:33;22.90;;;11.20;;
65275;SDS011;51875;49.994;14.052;2024-01-06T01:22:49;26.27;;;12.27;;
65275;SDS011;51875;49.994;14.052;2024-01-06T01:24:05;26.40;;;12.18;;
65275;SDS011;51875;49.994;14.052;2024-01-06T01:25:21;25.83;;;12.73;;
65275;SDS011;51875;49.994;14.052;2024-01-06T01:26:38;26.33;;;12.38;;
65275;SDS011;51875;49.994;14.052;2024-01-06T01:27:54;26.60;;;12.90;;
65275;SDS011;51875;49.994;14.052;2024-01-06T01:29:10;29.35;;;12.68;;
65275;SDS011;51875;49.994;14.052;2024-01-06T01:30:26;23.00;;;12.30;;
65275;SDS011;51875;49.994;14.052;2024-01-06T01:31:43;23.23;;;11.95;;
65275;SDS011;51875;49.994;14.052;2024-01-06T01:32:59;23.90;;;11.60;;
65275;SDS011;51875;49.994;14.052;2024-01-06T01:34:15;25.08;;;12.68;;
65275;SDS011;51875;49.994;14.052;2024-01-06T01:35:31;24.35;;;11.65;;
65275;SDS011;51875;49.994;14.052;2024-01-06T01:36:47;25.33;;;12.07;;
65275;SDS011;51875;49.994;14.052;2024-01-06T01:38:03;26.52;;;12.40;;
65275;SDS011;51875;49.994;14.052;2024-01-06T01:39:19;27.55;;;12.55;;
65275;SDS011;51875;49.994;14.052;2024-01-06T01:40:35;22.55;;;11.63;;
65275;SDS011;51875;49.994;14.052;2024-01-06T01:41:51;23.73;;;11.52;;
65275;SDS011;51875;49.994;14.052;2024-01-06T01:43:15;22.88;;;12.38;;
65275;SDS011;51875;49.994;14.052;2024-01-06T01:44:33;24.67;;;12.02;;
65275;SDS011;51875;49.994;14.052;2024-01-06T01:45:55;21.70;;;11.95;;
65275;SDS011;51875;49.994;14.052;2024-01-06T01:47:13;25.55;;;12.45;;
65275;SDS011;51875;49.994;14.052;2024-01-06T01:48:33;30.67;;;13.82;;
65275;SDS011;51875;49.994;14.052;2024-01-06T01:49:50;24.05;;;13.02;;
65275;SDS011;51875;49.994;14.052;2024-01-06T01:51:06;27.55;;;13.50;;
65275;SDS011;51875;49.994;14.052;2024-01-06T01:52:23;29.33;;;13.23;;
65275;SDS011;51875;49.994;14.052;2024-01-06T01:53:39;25.83;;;12.38;;
65275;SDS011;51875;49.994;14.052;2024-01-06T01:54:56;24.98;;;11.60;;
65275;SDS011;51875;49.994;14.052;2024-01-06T01:56:12;20.73;;;11.23;;
65275;SDS011;51875;49.994;14.052;2024-01-06T01:57:29;23.52;;;11.80;;
65275;SDS011;51875;49.994;14.052;2024-01-06T01:58:45;21.88;;;11.18;;
65275;SDS011;51875;49.994;14.052;2024-01-06T02:00:02;23.60;;;10.70;;
65275;SDS011;51875;49.994;14.052;2024-01-06T02:01:18;21.70;;;10.55;;
65275;SDS011;51875;49.994;14.052;2024-01-06T02:02:35;21.08;;;10.68;;
65275;SDS011;51875;49.994;14.052;2024-01-06T02:03:51;23.75;;;11.00;;
65275;SDS011;51875;49.994;14.052;2024-01-06T02:05:07;24.83;;;10.85;;
65275;SDS011;51875;49.994;14.052;2024-01-06T02:06:23;23.42;;;11.57;;
65275;SDS011;51875;49.994;14.052;2024-01-06T02:07:39;24.63;;;11.73;;
65275;SDS011;51875;49.994;14.052;2024-01-06T02:08:56;24.23;;;11.23;;
65275;SDS011;51875;49.994;14.052;2024-01-06T02:10:12;23.38;;;11.07;;
65275;SDS011;51875;49.994;14.052;2024-01-06T02:11:28;25.10;;;11.23;;
65275;SDS011;51875;49.994;14.052;2024-01-06T02:12:44;20.23;;;10.88;;
65275;SDS011;51875;49.994;14.052;2024-01-06T02:14:00;18.75;;;10.38;;
65275;SDS011;51875;49.994;14.052;2024-01-06T02:15:16;20.45;;;10.40;;
65275;SDS011;51875;49.994;14.052;2024-01-06T02:16:32;24.10;;;11.63;;
65275;SDS011;51875;49.994;14.052;2024-01-06T02:17:48;21.52;;;11.80;;
65275;SDS011;51875;49.994;14.052;2024-01-06T02:19:04;23.48;;;11.85;;
65275;SDS011;51875;49.994;14.052;2024-01-06T02:20:26;26.60;;;12.95;;
65275;SDS011;51875;49.994;14.052;2024-01-06T02:21:48;23.65;;;12.82;;
65275;SDS011;51875;49.994;14.052;2024-01-06T02:23:13;25.50;;;11.75;;
65275;SDS011;51875;49.994;14.052;2024-01-06T02:24:29;21.83;;;12.82;;
65275;SDS011;51875;49.994;14.052;2024-01-06T02:25:45;25.40;;;13.05;;
65275;SDS011;51875;49.994;14.052;2024-01-06T02:27:01;28.67;;;13.15;;
65275;SDS011;51875;49.994;14.052;2024-01-06T02:28:17;26.25;;;12.20;;
65275;SDS011;51875;49.994;14.052;2024-01-06T02:29:33;27.10;;;11.73;;
65275;SDS011;51875;49.994;14.052;2024-01-06T02:30:49;25.88;;;12.77;;
65275;SDS011;51875;49.994;14.052;2024-01-06T02:32:06;24.35;;;11.85;;
65275;SDS011;51875;49.994;14.052;2024-01-06T02:33:22;24.70;;;12.10;;
65275;SDS011;51875;49.994;14.052;2024-01-06T02:34:39;24.80;;;12.48;;
65275;SDS011;51875;49.994;14.052;2024-01-06T02:35:55;25.05;;;11.07;;
65275;SDS011;51875;49.994;14.052;2024-01-06T02:37:11;22.60;;;12.05;;
65275;SDS011;51875;49.994;14.052;2024-01-06T02:38:27;26.65;;;12.65;;
65275;SDS011;51875;49.994;14.052;2024-01-06T02:39:43;29.33;;;13.50;;
65275;SDS011;51875;49.994;14.052;2024-01-06T02:40:59;27.45;;;12.52;;
65275;SDS011;51875;49.994;14.052;2024-01-06T02:42:15;26.98;;;13.27;;
65275;SDS011;51875;49.994;14.052;2024-01-06T02:43:32;29.38;;;13.90;;
65275;SDS011;51875;49.994;14.052;2024-01-06T02:44:47;32.72;;;15.02;;
65275;SDS011;51875;49.994;14.052;2024-01-06T02:46:03;30.42;;;13.40;;
65275;SDS011;51875;49.994;14.052;2024-01-06T02:47:19;31.63;;;14.30;;
65275;SDS011;51875;49.994;14.052;2024-01-06T02:48:35;34.65;;;15.23;;
65275;SDS011;51875;49.994;14.052;2024-01-06T02:49:51;29.98;;;13.50;;
65275;SDS011;51875;49.994;14.052;2024-01-06T02:51:07;28.90;;;13.70;;
65275;SDS011;51875;49.994;14.052;2024-01-06T02:52:23;25.20;;;13.00;;
65275;SDS011;51875;49.994;14.052;2024-01-06T02:53:39;28.15;;;12.65;;
65275;SDS011;51875;49.994;14.052;2024-01-06T02:54:55;27.52;;;13.23;;
65275;SDS011;51875;49.994;14.052;2024-01-06T02:56:11;24.23;;;12.52;;
65275;SDS011;51875;49.994;14.052;2024-01-06T02:57:29;27.85;;;13.68;;
65275;SDS011;51875;49.994;14.052;2024-01-06T02:58:45;22.02;;;11.93;;
65275;SDS011;51875;49.994;14.052;2024-01-06T03:00:01;24.27;;;12.38;;
65275;SDS011;51875;49.994;14.052;2024-01-06T03:01:17;25.08;;;12.40;;
65275;SDS011;51875;49.994;14.052;2024-01-06T03:02:33;26.20;;;12.55;;
65275;SDS011;51875;49.994;14.052;2024-01-06T03:03:51;23.13;;;12.73;;
65275;SDS011;51875;49.994;14.052;2024-01-06T03:05:08;26.10;;;13.55;;
65275;SDS011;51875;49.994;14.052;2024-01-06T03:06:24;33.58;;;14.45;;
65275;SDS011;51875;49.994;14.052;2024-01-06T03:07:40;30.63;;;15.93;;
65275;SDS011;51875;49.994;14.052;2024-01-06T03:08:56;37.80;;;15.13;;
65275;SDS011;51875;49.994;14.052;2024-01-06T03:10:12;33.75;;;15.13;;
65275;SDS011;51875;49.994;14.052;2024-01-06T03:11:28;33.47;;;15.68;;
65275;SDS011;51875;49.994;14.052;2024-01-06T03:12:44;37.78;;;16.38;;
65275;SDS011;51875;49.994;14.052;2024-01-06T03:14:00;39.33;;;16.73;;
65275;SDS011;51875;49.994;14.052;2024-01-06T03:15:16;40.25;;;16.92;;
65275;SDS011;51875;49.994;14.052;2024-01-06T03:16:32;38.28;;;16.80;;
65275;SDS011;51875;49.994;14.052;2024-01-06T03:17:49;32.15;;;15.68;;
65275;SDS011;51875;49.994;14.052;2024-01-06T03:19:08;30.40;;;15.35;;
65275;SDS011;51875;49.994;14.052;2024-01-06T03:20:24;27.58;;;14.02;;
65275;SDS011;51875;49.994;14.052;2024-01-06T03:21:40;27.42;;;14.07;;
65275;SDS011;51875;49.994;14.052;2024-01-06T03:22:56;28.42;;;14.57;;
65275;SDS011;51875;49.994;14.052;2024-01-06T03:24:12;32.13;;;15.30;;
65275;SDS011;51875;49.994;14.052;2024-01-06T03:25:28;37.45;;;15.57;;
65275;SDS011;51875;49.994;14.052;2024-01-06T03:26:44;33.75;;;15.27;;
65275;SDS011;51875;49.994;14.052;2024-01-06T03:28:00;32.40;;;15.88;;
65275;SDS011;51875;49.994;14.052;2024-01-06T03:29:16;32.88;;;15.35;;
65275;SDS011;51875;49.994;14.052;2024-01-06T03:30:32;34.00;;;15.55;;
65275;SDS011;51875;49.994;14.052;2024-01-06T03:31:48;32.90;;;15.43;;
65275;SDS011;51875;49.994;14.052;2024-01-06T03:33:05;34.03;;;14.80;;
65275;SDS011;51875;49.994;14.052;2024-01-06T03:34:22;32.58;;;16.27;;
65275;SDS011;51875;49.994;14.052;2024-01-06T03:35:38;33.15;;;15.55;;
65275;SDS011;51875;49.994;14.052;2024-01-06T03:36:54;32.95;;;15.35;;
65275;SDS011;51875;49.994;14.052;2024-01-06T03:38:10;31.83;;;14.95;;
65275;SDS011;51875;49.994;14.052;2024-01-06T03:39:26;31.50;;;15.85;;
65275;SDS011;51875;49.994;14.052;2024-01-06T03:40:42;32.92;;;16.10;;
65275;SDS011;51875;49.994;14.052;2024-01-06T03:41:57;35.80;;;16.48;;
65275;SDS011;51875;49.994;14.052;2024-01-06T03:43:15;32.05;;;15.98;;
65275;SDS011;51875;49.994;14.052;2024-01-06T03:44:31;31.83;;;15.65;;
65275;SDS011;51875;49.994;14.052;2024-01-06T03:45:49;32.80;;;15.32;;
65275;SDS011;51875;49.994;14.052;2024-01-06T03:47:05;37.67;;;16.60;;
65275;SDS011;51875;49.994;14.052;2024-01-06T03:48:22;35.75;;;16.27;;
65275;SDS011;51875;49.994;14.052;2024-01-06T03:49:38;33.22;;;15.32;;
65275;SDS011;51875;49.994;14.052;2024-01-06T03:50:54;31.33;;;15.00;;
65275;SDS011;51875;49.994;14.052;2024-01-06T03:52:09;32.67;;;16.08;;
65275;SDS011;51875;49.994;14.052;2024-01-06T03:53:25;33.25;;;15.55;;
65275;SDS011;51875;49.994;14.052;2024-01-06T03:54:41;30.75;;;15.27;;
65275;SDS011;51875;49.994;14.052;2024-01-06T03:55:57;30.08;;;13.85;;
65275;SDS011;51875;49.994;14.052;2024-01-06T03:57:13;32.40;;;15.15;;
65275;SDS011;51875;49.994;14.052;2024-01-06T03:58:29;32.03;;;14.90;;
65275;SDS011;51875;49.994;14.052;2024-01-06T03:59:45;33.03;;;15.18;;
65275;SDS011;51875;49.994;14.052;2024-01-06T04:01:01;30.20;;;13.95;;
65275;SDS011;51875;49.994;14.052;2024-01-06T04:02:17;35.35;;;15.82;;
65275;SDS011;51875;49.994;14.052;2024-01-06T04:03:33;36.65;;;15.70;;
65275;SDS011;51875;49.994;14.052;2024-01-06T04:04:49;30.25;;;14.50;;
65275;SDS011;51875;49.994;14.052;2024-01-06T04:06:06;30.77;;;14.95;;
65275;SDS011;51875;49.994;14.052;2024-01-06T04:07:22;31.17;;;14.43;;
65275;SDS011;51875;49.994;14.052;2024-01-06T04:08:40;28.42;;;14.73;;
65275;SDS011;51875;49.994;14.052;2024-01-06T04:09:57;29.10;;;15.13;;
65275;SDS011;51875;49.994;14.052;2024-01-06T04:11:13;33.65;;;14.82;;
65275;SDS011;51875;49.994;14.052;2024-01-06T04:12:29;37.58;;;15.70;;
65275;SDS011;51875;49.994;14.052;2024-01-06T04:13:44;35.80;;;16.40;;
65275;SDS011;51875;49.994;14.052;2024-01-06T04:15:00;38.03;;;16.65;;
65275;SDS011;51875;49.994;14.052;2024-01-06T04:16:16;40.05;;;17.02;;
65275;SDS011;51875;49.994;14.052;2024-01-06T04:17:32;36.60;;;16.85;;
65275;SDS011;51875;49.994;14.052;2024-01-06T04:18:48;50.33;;;16.17;;
65275;SDS011;51875;49.994;14.052;2024-01-06T04:20:04;36.53;;;16.25;;
65275;SDS011;51875;49.994;14.052;2024-01-06T04:21:21;50.67;;;16.73;;
65275;SDS011;51875;49.994;14.052;2024-01-06T04:22:38;54.80;;;16.35;;
65275;SDS011;51875;49.994;14.052;2024-01-06T04:23:54;90.13;;;17.58;;
65275;SDS011;51875;49.994;14.052;2024-01-06T04:25:12;93.93;;;18.13;;
65275;SDS011;51875;49.994;14.052;2024-01-06T04:26:28;118.63;;;20.98;;
65275;SDS011;51875;49.994;14.052;2024-01-06T04:27:43;78.25;;;16.17;;
65275;SDS011;51875;49.994;14.052;2024-01-06T04:29:01;93.45;;;18.25;;
65275;SDS011;51875;49.994;14.052;2024-01-06T04:30:17;94.15;;;15.13;;
65275;SDS011;51875;49.994;14.052;2024-01-06T04:31:34;106.43;;;17.38;;
65275;SDS011;51875;49.994;14.052;2024-01-06T04:32:50;107.78;;;14.10;;
65275;SDS011;51875;49.994;14.052;2024-01-06T04:34:07;94.40;;;14.73;;
65275;SDS011;51875;49.994;14.052;2024-01-06T04:35:23;63.03;;;13.43;;
65275;SDS011;51875;49.994;14.052;2024-01-06T04:36:39;68.40;;;14.10;;
65275;SDS011;51875;49.994;14.052;2024-01-06T04:37:55;72.05;;;15.50;;
65275;SDS011;51875;49.994;14.052;2024-01-06T04:39:11;48.53;;;14.63;;
65275;SDS011;51875;49.994;14.052;2024-01-06T04:40:30;41.85;;;13.80;;
65275;SDS011;51875;49.994;14.052;2024-01-06T04:41:46;31.17;;;12.75;;
65275;SDS011;51875;49.994;14.052;2024-01-06T04:43:02;38.58;;;13.52;;
65275;SDS011;51875;49.994;14.052;2024-01-06T04:44:20;36.67;;;12.45;;
65275;SDS011;51875;49.994;14.052;2024-01-06T04:45:36;37.08;;;13.43;;
65275;SDS011;51875;49.994;14.052;2024-01-06T04:46:52;26.92;;;12.48;;
65275;SDS011;51875;49.994;14.052;2024-01-06T04:48:08;29.58;;;12.73;;
65275;SDS011;51875;49.994;14.052;2024-01-06T04:49:26;28.10;;;13.40;;
65275;SDS011;51875;49.994;14.052;2024-01-06T04:50:42;25.92;;;12.27;;
65275;SDS011;51875;49.994;14.052;2024-01-06T04:51:58;27.35;;;12.57;;
65275;SDS011;51875;49.994;14.052;2024-01-06T04:53:14;25.88;;;12.63;;
65275;SDS011;51875;49.994;14.052;2024-01-06T04:54:29;26.48;;;12.93;;
65275;SDS011;51875;49.994;14.052;2024-01-06T04:55:45;29.27;;;13.73;;
65275;SDS011;51875;49.994;14.052;2024-01-06T04:57:01;25.15;;;13.07;;
65275;SDS011;51875;49.994;14.052;2024-01-06T04:58:18;28.98;;;14.05;;
65275;SDS011;51875;49.994;14.052;2024-01-06T04:59:34;30.27;;;13.05;;
65275;SDS011;51875;49.994;14.052;2024-01-06T05:00:51;30.67;;;13.98;;
65275;SDS011;51875;49.994;14.052;2024-01-06T05:02:07;30.27;;;14.02;;
65275;SDS011;51875;49.994;14.052;2024-01-06T05:03:23;28.77;;;13.43;;
65275;SDS011;51875;49.994;14.052;2024-01-06T05:04:39;26.50;;;13.25;;
65275;SDS011;51875;49.994;14.052;2024-01-06T05:05:55;24.23;;;12.25;;
65275;SDS011;51875;49.994;14.052;2024-01-06T05:07:11;27.65;;;14.25;;
65275;SDS011;51875;49.994;14.052;2024-01-06T05:08:27;33.08;;;14.30;;
65275;SDS011;51875;49.994;14.052;2024-01-06T05:09:46;27.02;;;13.63;;
65275;SDS011;51875;49.994;14.052;2024-01-06T05:11:02;26.38;;;12.85;;
65275;SDS011;51875;49.994;14.052;2024-01-06T05:12:18;29.98;;;13.25;;
65275;SDS011;51875;49.994;14.052;2024-01-06T05:13:34;26.55;;;12.73;;
65275;SDS011;51875;49.994;14.052;2024-01-06T05:14:50;23.15;;;12.43;;
65275;SDS011;51875;49.994;14.052;2024-01-06T05:16:07;25.15;;;12.57;;
65275;SDS011;51875;49.994;14.052;2024-01-06T05:17:24;24.70;;;12.35;;
65275;SDS011;51875;49.994;14.052;2024-01-06T05:18:40;22.80;;;11.88;;
65275;SDS011;51875;49.994;14.052;2024-01-06T05:19:56;23.20;;;12.88;;
65275;SDS011;51875;49.994;14.052;2024-01-06T05:21:12;26.02;;;12.60;;
65275;SDS011;51875;49.994;14.052;2024-01-06T05:22:28;24.38;;;11.98;;
65275;SDS011;51875;49.994;14.052;2024-01-06T05:23:44;22.80;;;11.88;;
65275;SDS011;51875;49.994;14.052;2024-01-06T05:25:00;21.48;;;11.55;;
65275;SDS011;51875;49.994;14.052;2024-01-06T05:26:16;24.67;;;11.85;;
65275;SDS011;51875;49.994;14.052;2024-01-06T05:27:32;26.75;;;12.60;;
65275;SDS011;51875;49.994;14.052;2024-01-06T05:28:48;24.42;;;12.20;;
65275;SDS011;51875;49.994;14.052;2024-01-06T05:30:04;25.40;;;11.93;;
65275;SDS011;51875;49.994;14.052;2024-01-06T05:31:21;23.27;;;11.63;;
65275;SDS011;51875;49.994;14.052;2024-01-06T05:32:37;22.23;;;11.35;;
65275;SDS011;51875;49.994;14.052;2024-01-06T05:33:54;28.67;;;13.15;;
65275;SDS011;51875;49.994;14.052;2024-01-06T05:35:10;23.25;;;12.52;;
65275;SDS011;51875;49.994;14.052;2024-01-06T05:36:26;24.65;;;12.40;;
65275;SDS011;51875;49.994;14.052;2024-01-06T05:37:42;23.27;;;12.30;;
65275;SDS011;51875;49.994;14.052;2024-01-06T05:38:58;24.45;;;12.27;;
65275;SDS011;51875;49.994;14.052;2024-01-06T05:40:15;25.02;;;12.02;;
65275;SDS011;51875;49.994;14.052;2024-01-06T05:41:36;23.10;;;12.20;;
65275;SDS011;51875;49.994;14.052;2024-01-06T05:42:53;23.02;;;12.50;;
65275;SDS011;51875;49.994;14.052;2024-01-06T05:44:11;21.90;;;11.95;;
65275;SDS011;51875;49.994;14.052;2024-01-06T05:45:27;26.85;;;13.02;;
65275;SDS011;51875;49.994;14.052;2024-01-06T05:46:43;24.17;;;12.13;;
65275;SDS011;51875;49.994;14.052;2024-01-06T05:47:59;23.63;;;12.05;;
65275;SDS011;51875;49.994;14.052;2024-01-06T05:49:15;25.83;;;12.43;;
65275;SDS011;51875;49.994;14.052;2024-01-06T05:50:31;23.48;;;11.52;;
65275;SDS011;51875;49.994;14.052;2024-01-06T05:51:46;21.92;;;11.27;;
65275;SDS011;51875;49.994;14.052;2024-01-06T05:53:02;24.30;;;11.30;;
65275;SDS011;51875;49.994;14.052;2024-01-06T05:54:18;18.60;;;10.10;;
65275;SDS011;51875;49.994;14.052;2024-01-06T05:55:34;23.65;;;11.90;;
65275;SDS011;51875;49.994;14.052;2024-01-06T05:56:50;22.50;;;11.55;;
65275;SDS011;51875;49.994;14.052;2024-01-06T05:58:07;21.02;;;11.00;;
65275;SDS011;51875;49.994;14.052;2024-01-06T05:59:23;22.65;;;12.07;;
65275;SDS011;51875;49.994;14.052;2024-01-06T06:00:38;21.30;;;11.30;;
65275;SDS011;51875;49.994;14.052;2024-01-06T06:01:55;19.38;;;11.35;;
65275;SDS011;51875;49.994;14.052;2024-01-06T06:03:11;21.40;;;11.70;;
65275;SDS011;51875;49.994;14.052;2024-01-06T06:04:27;19.73;;;10.50;;
65275;SDS011;51875;49.994;14.052;2024-01-06T06:05:43;25.92;;;11.65;;
65275;SDS011;51875;49.994;14.052;2024-01-06T06:07:00;21.38;;;11.10;;
65275;SDS011;51875;49.994;14.052;2024-01-06T06:08:17;23.55;;;10.70;;
65275;SDS011;51875;49.994;14.052;2024-01-06T06:09:33;21.70;;;11.38;;
65275;SDS011;51875;49.994;14.052;2024-01-06T06:10:55;24.25;;;12.63;;
65275;SDS011;51875;49.994;14.052;2024-01-06T06:12:18;25.73;;;12.65;;
65275;SDS011;51875;49.994;14.052;2024-01-06T06:13:34;26.08;;;14.38;;
65275;SDS011;51875;49.994;14.052;2024-01-06T06:14:50;38.40;;;18.90;;
65275;SDS011;51875;49.994;14.052;2024-01-06T06:16:06;38.97;;;18.63;;
65275;SDS011;51875;49.994;14.052;2024-01-06T06:17:22;36.53;;;18.33;;
65275;SDS011;51875;49.994;14.052;2024-01-06T06:18:39;35.15;;;17.70;;
65275;SDS011;51875;49.994;14.052;2024-01-06T06:19:55;38.13;;;18.83;;
65275;SDS011;51875;49.994;14.052;2024-01-06T06:21:12;36.60;;;18.63;;
65275;SDS011;51875;49.994;14.052;2024-01-06T06:22:29;36.00;;;17.42;;
65275;SDS011;51875;49.994;14.052;2024-01-06T06:23:46;31.65;;;15.18;;
65275;SDS011;51875;49.994;14.052;2024-01-06T06:25:02;25.50;;;13.40;;
65275;SDS011;51875;49.994;14.052;2024-01-06T06:26:19;28.65;;;13.50;;
65275;SDS011;51875;49.994;14.052;2024-01-06T06:27:35;25.38;;;13.15;;
65275;SDS011;51875;49.994;14.052;2024-01-06T06:28:52;27.08;;;13.90;;
65275;SDS011;51875;49.994;14.052;2024-01-06T06:30:09;28.20;;;13.85;;
65275;SDS011;51875;49.994;14.052;2024-01-06T06:31:25;40.30;;;14.50;;
65275;SDS011;51875;49.994;14.052;2024-01-06T06:32:41;54.80;;;15.13;;
65275;SDS011;51875;49.994;14.052;2024-01-06T06:33:57;34.42;;;14.82;;
65275;SDS011;51875;49.994;14.052;2024-01-06T06:35:13;42.58;;;16.35;;
65275;SDS011;51875;49.994;14.052;2024-01-06T06:36:29;51.58;;;16.50;;
65275;SDS011;51875;49.994;14.052;2024-01-06T06:37:46;37.42;;;15.93;;
65275;SDS011;51875;49.994;14.052;2024-01-06T06:39:02;38.78;;;15.60;;
65275;SDS011;51875;49.994;14.052;2024-01-06T06:40:20;35.05;;;15.13;;
65275;SDS011;51875;49.994;14.052;2024-01-06T06:41:36;36.78;;;15.63;;
65275;SDS011;51875;49.994;14.052;2024-01-06T06:42:52;34.30;;;16.05;;
65275;SDS011;51875;49.994;14.052;2024-01-06T06:44:08;31.95;;;14.45;;
65275;SDS011;51875;49.994;14.052;2024-01-06T06:45:24;39.25;;;15.23;;
65275;SDS011;51875;49.994;14.052;2024-01-06T06:46:40;40.22;;;17.00;;
65275;SDS011;51875;49.994;14.052;2024-01-06T06:47:56;38.97;;;16.05;;
65275;SDS011;51875;49.994;14.052;2024-01-06T06:49:12;36.17;;;16.42;;
65275;SDS011;51875;49.994;14.052;2024-01-06T06:50:28;37.90;;;16.20;;
65275;SDS011;51875;49.994;14.052;2024-01-06T06:51:44;34.38;;;16.52;;
65275;SDS011;51875;49.994;14.052;2024-01-06T06:53:04;37.85;;;16.73;;
65275;SDS011;51875;49.994;14.052;2024-01-06T06:54:20;38.50;;;15.88;;
65275;SDS011;51875;49.994;14.052;2024-01-06T06:55:36;33.20;;;16.52;;
65275;SDS011;51875;49.994;14.052;2024-01-06T06:56:52;37.00;;;15.82;;
65275;SDS011;51875;49.994;14.052;2024-01-06T06:58:08;34.75;;;15.27;;
65275;SDS011;51875;49.994;14.052;2024-01-06T06:59:24;30.30;;;14.10;;
65275;SDS011;51875;49.994;14.052;2024-01-06T07:00:40;37.13;;;15.25;;
65275;SDS011;51875;49.994;14.052;2024-01-06T07:01:58;32.13;;;15.35;;
65275;SDS011;51875;49.994;14.052;2024-01-06T07:03:14;30.10;;;13.85;;
65275;SDS011;51875;49.994;14.052;2024-01-06T07:04:30;32.38;;;14.88;;
65275;SDS011;51875;49.994;14.052;2024-01-06T07:05:46;32.28;;;13.80;;
65275;SDS011;51875;49.994;14.052;2024-01-06T07:07:03;32.75;;;14.23;;
65275;SDS011;51875;49.994;14.052;2024-01-06T07:08:19;31.42;;;14.02;;
65275;SDS011;51875;49.994;14.052;2024-01-06T07:09:35;31.00;;;14.27;;
65275;SDS011;51875;49.994;14.052;2024-01-06T07:10:50;25.42;;;13.65;;
65275;SDS011;51875;49.994;14.052;2024-01-06T07:12:06;32.55;;;15.20;;
65275;SDS011;51875;49.994;14.052;2024-01-06T07:13:23;33.22;;;14.23;;
65275;SDS011;51875;49.994;14.052;2024-01-06T07:14:39;28.95;;;13.82;;
65275;SDS011;51875;49.994;14.052;2024-01-06T07:15:55;28.60;;;14.23;;
65275;SDS011;51875;49.994;14.052;2024-01-06T07:17:11;29.25;;;14.25;;
65275;SDS011;51875;49.994;14.052;2024-01-06T07:18:29;29.10;;;13.98;;
65275;SDS011;51875;49.994;14.052;2024-01-06T07:19:45;26.95;;;14.32;;